createdAt,value
2022-12-31T00:02:59.282Z,1.95
2022-12-31T00:05:27.464Z,2.28
2022-12-31T00:07:57.867Z,1.80
2022-12-31T00:10:52.259Z,2.20
2022-12-31T00:13:19.251Z,1.90
2022-12-31T00:15:46.087Z,1.83
2022-12-31T00:18:12.926Z,1.95
2022-12-31T00:20:41.887Z,2.92
2022-12-31T00:23:10.182Z,2.15
2022-12-31T00:25:37.314Z,2.20
2022-12-31T00:28:05.060Z,2.63
2022-12-31T00:30:32.052Z,2.60
2022-12-31T00:32:58.919Z,2.92
2022-12-31T00:35:50.867Z,2.70
2022-12-31T00:38:35.932Z,2.53
2022-12-31T00:41:03.149Z,2.42
2022-12-31T00:43:29.899Z,2.63
2022-12-31T00:45:57.346Z,2.63
2022-12-31T00:48:42.238Z,2.90
2022-12-31T00:51:11.624Z,3.47
2022-12-31T00:53:38.903Z,3.50
2022-12-31T00:56:12.290Z,2.70
2022-12-31T00:58:39.633Z,2.90
2022-12-31T01:01:16.358Z,2.83
2022-12-31T01:03:43.626Z,2.85
2022-12-31T01:06:10.910Z,3.25
2022-12-31T01:08:37.900Z,3.03
2022-12-31T01:11:22.113Z,3.05
2022-12-31T01:14:07.314Z,3.00
2022-12-31T01:16:40.959Z,3.03
2022-12-31T01:19:33.009Z,3.33
2022-12-31T01:22:35.549Z,3.20
2022-12-31T01:25:02.237Z,3.15
2022-12-31T01:28:19.961Z,3.50
2022-12-31T01:30:48.829Z,3.65
2022-12-31T01:33:15.598Z,3.47
2022-12-31T01:35:42.279Z,2.95
2022-12-31T01:38:08.981Z,2.72
2022-12-31T01:40:40.596Z,3.53
2022-12-31T01:43:22.365Z,3.05
2022-12-31T01:45:55.205Z,3.15
2022-12-31T01:48:26.144Z,3.10
2022-12-31T01:51:42.803Z,2.88
2022-12-31T01:54:12.901Z,2.97
2022-12-31T01:56:53.789Z,3.33
2022-12-31T01:59:23.875Z,2.97
2022-12-31T02:01:54.558Z,3.35
2022-12-31T02:04:25.685Z,3.30
2022-12-31T02:06:58.329Z,3.60
2022-12-31T02:09:25.144Z,3.67
2022-12-31T02:11:53.140Z,3.47
2022-12-31T02:14:36.228Z,3.78
2022-12-31T02:17:23.777Z,3.97
2022-12-31T02:20:12.411Z,3.42
2022-12-31T02:22:45.211Z,3.80
2022-12-31T02:25:34.200Z,3.33
2022-12-31T02:28:53.109Z,3.42
2022-12-31T02:31:32.642Z,3.22
2022-12-31T02:34:05.893Z,3.70
2022-12-31T02:36:37.867Z,3.75
2022-12-31T02:39:07.450Z,3.85
2022-12-31T02:41:50.010Z,3.45
2022-12-31T02:44:24.706Z,3.65
2022-12-31T02:47:34.980Z,3.45
2022-12-31T02:50:29.680Z,3.67
2022-12-31T02:53:34.244Z,3.40
2022-12-31T02:57:01.649Z,3.03
2022-12-31T02:59:57.827Z,2.88
2022-12-31T03:02:30.221Z,3.10
2022-12-31T03:04:57.778Z,3.47
2022-12-31T03:07:31.688Z,2.95
2022-12-31T03:10:00.907Z,3.17
2022-12-31T03:12:47.206Z,3.20
2022-12-31T03:15:25.792Z,2.80
2022-12-31T03:18:03.064Z,2.70
2022-12-31T03:21:13.934Z,2.90
2022-12-31T03:23:43.843Z,3.35
2022-12-31T03:26:12.196Z,2.88
2022-12-31T03:28:43.698Z,2.85
2022-12-31T03:33:43.545Z,3.35
2022-12-31T03:36:35.703Z,2.72
2022-12-31T03:39:02.441Z,3.13
2022-12-31T03:41:29.133Z,2.80
2022-12-31T03:43:55.998Z,2.90
2022-12-31T03:46:22.743Z,3.28
2022-12-31T03:48:49.503Z,3.13
2022-12-31T03:51:17.093Z,3.40
2022-12-31T03:53:43.821Z,3.13
2022-12-31T03:56:10.634Z,3.35
2022-12-31T03:58:37.346Z,3.30
2022-12-31T04:01:04.292Z,3.60
2022-12-31T04:03:31.199Z,3.13
2022-12-31T04:05:58.064Z,3.72
2022-12-31T04:08:24.872Z,3.97
2022-12-31T04:10:51.636Z,3.90
2022-12-31T04:13:18.432Z,3.95
2022-12-31T04:15:45.241Z,3.72
2022-12-31T04:18:12.561Z,3.83
2022-12-31T04:20:39.531Z,4.07
2022-12-31T04:23:06.164Z,4.25
2022-12-31T04:25:33.020Z,3.95
2022-12-31T04:27:59.730Z,4.60
2022-12-31T04:30:26.448Z,4.65
2022-12-31T04:32:53.241Z,4.90
2022-12-31T04:35:20.559Z,4.13
2022-12-31T04:37:47.407Z,4.63
2022-12-31T04:40:14.141Z,4.35
2022-12-31T04:42:40.962Z,4.65
2022-12-31T04:45:08.542Z,4.40
2022-12-31T04:47:35.423Z,4.63
2022-12-31T04:50:02.056Z,4.00
2022-12-31T04:52:28.904Z,4.25
2022-12-31T04:54:55.694Z,4.40
2022-12-31T04:57:22.573Z,4.15
2022-12-31T04:59:49.238Z,4.45
2022-12-31T05:02:16.146Z,4.20
2022-12-31T05:04:43.316Z,4.63
2022-12-31T05:07:10.021Z,4.50
2022-12-31T05:09:36.855Z,4.10
2022-12-31T05:12:03.768Z,4.10
2022-12-31T05:14:30.428Z,4.43
2022-12-31T05:16:58.304Z,4.40
2022-12-31T05:19:25.109Z,4.80
2022-12-31T05:22:10.305Z,4.10
2022-12-31T05:24:37.042Z,4.45
2022-12-31T05:27:03.936Z,4.53
2022-12-31T05:29:30.665Z,4.40
2022-12-31T05:31:57.449Z,4.43
2022-12-31T05:34:24.189Z,4.55
2022-12-31T05:36:51.146Z,4.63
2022-12-31T05:39:17.900Z,4.47
2022-12-31T05:41:44.606Z,4.70
2022-12-31T05:44:11.544Z,3.83
2022-12-31T05:46:38.380Z,4.13
2022-12-31T05:49:05.138Z,4.55
2022-12-31T05:51:31.845Z,4.25
2022-12-31T05:53:58.988Z,4.40
2022-12-31T05:56:25.844Z,3.88
2022-12-31T05:58:52.664Z,4.30
2022-12-31T06:01:19.425Z,4.72
2022-12-31T06:03:46.684Z,4.70
2022-12-31T06:06:13.727Z,3.90
2022-12-31T06:08:40.546Z,4.60
2022-12-31T06:11:07.272Z,4.43
2022-12-31T06:13:34.019Z,3.60
2022-12-31T06:16:08.881Z,3.95
2022-12-31T06:18:35.611Z,3.65
2022-12-31T06:21:02.762Z,3.60
2022-12-31T06:23:29.636Z,3.42
2022-12-31T06:25:56.606Z,2.92
2022-12-31T06:28:23.333Z,2.40
2022-12-31T06:30:50.217Z,2.15
2022-12-31T06:33:17.082Z,1.92
2022-12-31T06:35:44.084Z,1.80
2022-12-31T06:38:10.809Z,1.70
2022-12-31T06:40:37.809Z,1.25
2022-12-31T06:43:05.750Z,1.33
2022-12-31T06:45:32.555Z,1.27
2022-12-31T06:47:59.214Z,1.30
2022-12-31T06:50:25.985Z,1.15
2022-12-31T06:52:52.697Z,1.25
2022-12-31T06:55:19.710Z,0.90
2022-12-31T06:57:46.782Z,1.05
2022-12-31T07:00:14.161Z,0.93
2022-12-31T07:02:54.396Z,0.90
2022-12-31T07:05:46.323Z,0.95
2022-12-31T07:08:25.841Z,1.02
2022-12-31T07:11:17.019Z,1.17
2022-12-31T07:14:17.426Z,1.25
2022-12-31T07:16:49.293Z,1.60
2022-12-31T07:19:19.050Z,1.13
2022-12-31T07:21:46.196Z,1.17
2022-12-31T07:24:13.635Z,0.98
2022-12-31T07:26:58.636Z,0.98
2022-12-31T07:29:46.265Z,1.10
2022-12-31T07:32:34.234Z,1.23
2022-12-31T07:35:19.083Z,1.25
2022-12-31T07:38:17.773Z,1.02
2022-12-31T07:41:09.391Z,1.30
2022-12-31T07:43:52.044Z,0.95
2022-12-31T07:46:42.596Z,0.88
2022-12-31T07:51:39.977Z,1.15
2022-12-31T07:54:13.395Z,1.02
2022-12-31T07:56:42.079Z,1.00
2022-12-31T07:59:24.609Z,0.88
2022-12-31T08:02:16.519Z,0.82
2022-12-31T08:05:04.097Z,1.23
2022-12-31T08:07:43.496Z,1.20
2022-12-31T08:10:33.203Z,1.40
2022-12-31T08:13:05.399Z,2.10
2022-12-31T08:15:32.614Z,1.90
2022-12-31T08:17:59.469Z,1.63
2022-12-31T08:20:27.155Z,1.90
2022-12-31T08:23:26.286Z,1.75
2022-12-31T08:26:08.256Z,1.67
2022-12-31T08:28:53.932Z,1.92
2022-12-31T08:31:47.714Z,2.17
2022-12-31T08:34:28.942Z,2.33
2022-12-31T08:37:00.089Z,1.70
2022-12-31T08:39:48.825Z,2.10
2022-12-31T08:42:41.295Z,1.92
2022-12-31T08:45:25.043Z,2.38
2022-12-31T08:48:01.411Z,1.73
2022-12-31T08:50:28.696Z,2.13
2022-12-31T08:52:55.844Z,1.80
2022-12-31T08:55:23.017Z,1.30
2022-12-31T08:58:34.079Z,1.35
2022-12-31T09:01:02.149Z,1.42
2022-12-31T09:04:10.956Z,1.30
2022-12-31T09:06:48.796Z,0.98
2022-12-31T09:09:31.323Z,0.98
2022-12-31T09:12:09.788Z,0.90
2022-12-31T09:14:47.146Z,0.77
2022-12-31T09:17:19.992Z,0.80
2022-12-31T09:19:47.016Z,0.60
2022-12-31T09:22:14.050Z,0.60
2022-12-31T09:24:41.124Z,0.70
2022-12-31T09:27:27.456Z,0.70
2022-12-31T09:30:01.871Z,0.32
2022-12-31T09:32:43.711Z,0.47
2022-12-31T09:35:13.319Z,0.35
2022-12-31T09:37:51.360Z,0.60
2022-12-31T09:40:36.832Z,0.60
2022-12-31T09:43:41.659Z,0.50
2022-12-31T09:46:39.277Z,0.50
2022-12-31T09:49:05.988Z,0.40
2022-12-31T09:51:44.853Z,0.43
2022-12-31T09:54:30.092Z,0.40
2022-12-31T09:57:22.859Z,0.40
2022-12-31T09:59:59.392Z,0.40
2022-12-31T10:02:54.047Z,0.40
2022-12-31T10:05:52.056Z,0.40
2022-12-31T10:08:43.637Z,0.30
2022-12-31T10:11:29.362Z,1.13
2022-12-31T10:14:23.568Z,0.30
2022-12-31T10:17:21.648Z,0.43
2022-12-31T10:20:01.532Z,0.30
2022-12-31T10:22:54.497Z,0.30
2022-12-31T10:25:55.513Z,0.30
2022-12-31T10:28:31.219Z,0.30
2022-12-31T10:31:30.291Z,0.43
2022-12-31T10:34:15.964Z,0.40
2022-12-31T10:36:54.337Z,0.60
2022-12-31T10:39:52.102Z,0.40
2022-12-31T10:42:57.282Z,0.50
2022-12-31T10:45:29.840Z,0.60
2022-12-31T10:48:34.589Z,0.50
2022-12-31T10:51:35.044Z,0.50
2022-12-31T10:54:13.965Z,0.52
2022-12-31T10:57:01.075Z,0.65
2022-12-31T10:59:46.297Z,0.70
2022-12-31T11:02:32.039Z,0.70
2022-12-31T11:05:01.692Z,0.90
2022-12-31T11:07:54.907Z,0.70
2022-12-31T11:10:38.061Z,0.80
2022-12-31T11:13:26.487Z,0.75
2022-12-31T11:16:17.985Z,0.70
2022-12-31T11:18:55.299Z,0.60
2022-12-31T11:21:45.120Z,0.75
2022-12-31T11:24:15.121Z,0.50
2022-12-31T11:26:50.227Z,0.70
2022-12-31T11:29:44.737Z,0.60
2022-12-31T11:32:31.132Z,0.68
2022-12-31T11:35:18.165Z,1.10
2022-12-31T11:37:49.488Z,0.38
2022-12-31T11:40:35.020Z,0.43
2022-12-31T11:43:25.014Z,0.45
2022-12-31T11:46:16.873Z,0.80
2022-12-31T11:49:02.020Z,0.73
2022-12-31T11:51:50.971Z,0.40
2022-12-31T11:54:33.240Z,0.50
2022-12-31T11:57:12.775Z,0.50
2022-12-31T11:59:39.756Z,0.50
2022-12-31T12:02:28.482Z,0.50
2022-12-31T12:05:02.734Z,0.50
2022-12-31T12:07:35.097Z,0.70
2022-12-31T12:10:35.622Z,0.40
2022-12-31T12:13:16.952Z,0.40
2022-12-31T12:15:50.021Z,0.40
2022-12-31T12:18:30.768Z,0.43
2022-12-31T12:21:18.923Z,0.35
2022-12-31T12:24:17.432Z,0.30
2022-12-31T12:26:45.509Z,0.40
2022-12-31T12:29:34.298Z,0.43
2022-12-31T12:32:27.850Z,0.40
2022-12-31T12:34:54.881Z,0.30
2022-12-31T12:37:33.481Z,0.47
2022-12-31T12:40:04.289Z,0.30
2022-12-31T12:42:31.488Z,0.93
2022-12-31T12:45:15.343Z,0.40
2022-12-31T12:47:47.672Z,0.32
2022-12-31T12:50:20.968Z,0.52
2022-12-31T12:52:53.839Z,0.30
2022-12-31T12:55:48.696Z,0.28
2022-12-31T12:58:38.612Z,0.70
2022-12-31T13:01:14.497Z,0.30
2022-12-31T13:04:32.522Z,0.20
2022-12-31T13:07:05.557Z,0.45
2022-12-31T13:09:32.231Z,0.55
2022-12-31T13:12:13.043Z,0.30
2022-12-31T13:14:44.550Z,0.20
2022-12-31T13:17:38.862Z,0.43
2022-12-31T13:20:15.150Z,0.20
2022-12-31T13:22:50.817Z,0.20
2022-12-31T13:25:32.801Z,0.30
2022-12-31T13:28:05.148Z,0.32
2022-12-31T13:30:49.411Z,0.40
2022-12-31T13:33:20.491Z,0.30
2022-12-31T13:36:05.425Z,0.30
2022-12-31T13:38:35.575Z,0.25
2022-12-31T13:41:21.977Z,0.20
2022-12-31T13:44:04.044Z,0.25
2022-12-31T13:46:52.716Z,0.30
2022-12-31T13:49:29.018Z,0.22
2022-12-31T13:52:24.664Z,0.30
2022-12-31T13:55:10.350Z,0.20
2022-12-31T13:57:42.863Z,0.30
2022-12-31T14:00:24.760Z,0.30
2022-12-31T14:03:20.990Z,0.30
2022-12-31T14:06:13.457Z,0.28
2022-12-31T14:08:40.433Z,0.30
2022-12-31T14:11:36.295Z,0.40
2022-12-31T14:14:35.498Z,0.40
2022-12-31T14:17:24.232Z,0.32
2022-12-31T14:20:23.410Z,0.32
2022-12-31T14:23:02.993Z,0.20
2022-12-31T14:25:38.362Z,0.30
2022-12-31T14:28:10.078Z,0.25
2022-12-31T14:30:40.118Z,0.20
2022-12-31T14:33:25.617Z,0.20
2022-12-31T14:36:10.367Z,0.20
2022-12-31T14:38:56.453Z,0.22
2022-12-31T14:41:50.823Z,0.30
2022-12-31T14:44:42.068Z,0.20
2022-12-31T14:47:44.488Z,0.20
2022-12-31T14:50:16.015Z,0.20
2022-12-31T14:52:54.837Z,0.20
2022-12-31T14:55:25.540Z,0.35
2022-12-31T14:58:26.623Z,0.30
2022-12-31T15:00:51.093Z,0.38
2022-12-31T15:03:18.242Z,0.30
2022-12-31T15:06:03.961Z,0.20
2022-12-31T15:08:46.691Z,0.30
2022-12-31T15:11:38.293Z,0.63
2022-12-31T15:14:37.581Z,0.40
2022-12-31T15:17:35.618Z,2.30
2022-12-31T15:20:50.249Z,0.57
2022-12-31T15:23:25.649Z,0.40
2022-12-31T15:25:59.597Z,0.73
2022-12-31T15:28:31.139Z,0.52
2022-12-31T15:33:35.304Z,0.80
2022-12-31T15:36:39.031Z,0.40
2022-12-31T15:39:26.310Z,0.22
2022-12-31T15:42:36.084Z,0.30
2022-12-31T15:44:48.661Z,0.30
2022-12-31T15:47:37.618Z,0.20
2022-12-31T15:50:12.691Z,0.80
2022-12-31T15:52:47.898Z,0.70
2022-12-31T15:55:26.175Z,1.95
2022-12-31T15:57:56.855Z,0.20
2022-12-31T16:00:24.421Z,0.30
2022-12-31T16:02:54.880Z,0.40
2022-12-31T16:05:26.971Z,0.30
2022-12-31T16:07:59.750Z,0.30
2022-12-31T16:10:32.420Z,0.40
2022-12-31T16:13:00.124Z,0.45
2022-12-31T16:15:30.180Z,0.30
2022-12-31T16:18:01.336Z,0.63
2022-12-31T16:20:31.105Z,0.43
2022-12-31T16:23:00.055Z,0.40
2022-12-31T16:25:31.534Z,0.73
2022-12-31T16:27:59.237Z,0.52
2022-12-31T16:30:36.014Z,0.68
2022-12-31T16:33:05.572Z,0.80
2022-12-31T16:35:37.137Z,1.30
2022-12-31T16:41:08.909Z,1.50
2022-12-31T16:43:43.229Z,1.60
2022-12-31T16:46:10.224Z,1.90
2022-12-31T16:48:38.296Z,1.52
2022-12-31T16:51:05.949Z,4.88
2022-12-31T16:53:36.501Z,2.92
2022-12-31T16:56:08.824Z,1.75
2022-12-31T16:58:43.275Z,1.60
2022-12-31T17:01:19.689Z,2.03
2022-12-31T17:03:54.423Z,1.60
2022-12-31T17:06:22.347Z,2.95
2022-12-31T17:08:59.824Z,2.17
2022-12-31T17:11:31.077Z,1.95
2022-12-31T17:14:07.178Z,1.38
2022-12-31T17:16:36.888Z,1.60
2022-12-31T17:19:04.326Z,1.67
2022-12-31T17:21:32.161Z,2.00
2022-12-31T17:24:05.629Z,2.00
2022-12-31T17:26:34.729Z,1.92
2022-12-31T17:29:02.984Z,2.15
2022-12-31T17:31:34.738Z,2.10
2022-12-31T17:34:22.494Z,2.15
2022-12-31T17:37:00.668Z,2.05
2022-12-31T17:39:46.398Z,3.40
2022-12-31T17:42:15.891Z,2.55
2022-12-31T17:44:44.588Z,2.03
2022-12-31T17:47:14.126Z,1.58
2022-12-31T17:49:45.286Z,1.92
2022-12-31T17:52:14.435Z,1.42
2022-12-31T17:54:41.921Z,1.50
2022-12-31T17:57:25.998Z,2.00
2022-12-31T18:02:19.784Z,2.38
2022-12-31T18:04:46.715Z,2.60
2022-12-31T18:07:13.435Z,3.72
2022-12-31T18:09:40.245Z,2.17
2022-12-31T18:12:07.522Z,2.13
2022-12-31T18:14:34.552Z,2.40
2022-12-31T18:17:12.697Z,1.80
2022-12-31T18:20:03.703Z,2.10
2022-12-31T18:22:26.319Z,1.55
2022-12-31T18:24:54.295Z,2.17
2022-12-31T18:27:21.146Z,1.80
2022-12-31T18:29:47.932Z,1.77
2022-12-31T18:32:24.992Z,1.20
2022-12-31T18:34:51.885Z,1.30
2022-12-31T18:37:22.210Z,1.48
2022-12-31T18:39:49.609Z,1.33
2022-12-31T18:42:18.579Z,1.80
2022-12-31T18:44:46.073Z,1.40
2022-12-31T18:47:13.601Z,1.20
2022-12-31T18:49:40.998Z,1.63
2022-12-31T18:52:13.860Z,1.48
2022-12-31T18:54:40.644Z,1.42
2022-12-31T18:57:07.288Z,1.58
2022-12-31T18:59:34.043Z,3.03
2022-12-31T19:02:01.414Z,1.85
2022-12-31T19:04:28.656Z,1.73
2022-12-31T19:06:55.933Z,13.60
2022-12-31T19:09:44.693Z,2.60
2022-12-31T19:12:13.093Z,8.95
2022-12-31T19:14:39.968Z,29.70
2022-12-31T19:19:32.325Z,31.17
2022-12-31T19:21:59.226Z,16.77
2022-12-31T19:24:27.177Z,3.72
2022-12-31T19:26:54.553Z,4.50
2022-12-31T19:29:23.786Z,4.68
2022-12-31T19:31:51.111Z,5.45
2022-12-31T19:34:18.188Z,5.13
2022-12-31T19:36:45.441Z,2.03
2022-12-31T19:39:21.417Z,8.50
2022-12-31T19:41:54.792Z,2.40
2022-12-31T19:44:25.617Z,1.90
2022-12-31T19:46:52.597Z,1.65
2022-12-31T19:49:19.568Z,1.67
2022-12-31T19:51:46.294Z,5.60
2022-12-31T19:54:13.762Z,4.95
2022-12-31T19:56:40.828Z,3.17
2022-12-31T19:59:09.888Z,2.90
2022-12-31T20:01:37.047Z,2.25
2022-12-31T20:04:04.437Z,2.22
2022-12-31T20:06:31.268Z,2.33
2022-12-31T20:08:58.472Z,3.10
2022-12-31T20:11:25.341Z,2.50
2022-12-31T20:13:54.039Z,2.65
2022-12-31T20:16:23.760Z,3.63
2022-12-31T20:18:50.913Z,5.53
2022-12-31T20:21:20.412Z,4.82
2022-12-31T20:23:49.153Z,3.90
2022-12-31T20:26:16.643Z,2.70
2022-12-31T20:28:43.667Z,3.25
2022-12-31T20:31:13.352Z,3.20
2022-12-31T20:33:40.906Z,7.00
2022-12-31T20:36:10.667Z,7.25
2022-12-31T20:38:37.649Z,4.50
2022-12-31T20:41:05.841Z,3.10
2022-12-31T20:43:34.136Z,2.63
2022-12-31T20:46:15.907Z,2.95
2022-12-31T20:48:44.573Z,2.33
2022-12-31T20:51:12.646Z,2.63
2022-12-31T20:53:39.761Z,2.38
2022-12-31T20:56:08.077Z,3.90
2022-12-31T20:58:35.077Z,3.83
2022-12-31T21:01:05.112Z,3.47
2022-12-31T21:06:18.983Z,4.90
2022-12-31T21:08:46.543Z,10.13
2022-12-31T21:11:32.715Z,4.13
2022-12-31T21:14:00.565Z,4.55
2022-12-31T21:16:28.145Z,4.38
2022-12-31T21:18:55.434Z,5.22
2022-12-31T21:21:22.570Z,4.95
2022-12-31T21:23:49.918Z,6.30
2022-12-31T21:26:16.721Z,6.75
2022-12-31T21:28:43.495Z,5.50
2022-12-31T21:31:12.535Z,6.18
2022-12-31T21:33:39.355Z,4.85
2022-12-31T21:36:06.457Z,5.97
2022-12-31T21:38:36.818Z,8.02
2022-12-31T21:41:05.568Z,4.57
2022-12-31T21:43:32.299Z,6.50
2022-12-31T21:46:04.266Z,3.38
2022-12-31T21:48:31.665Z,3.00
2022-12-31T21:51:15.337Z,3.50
2022-12-31T21:53:42.255Z,5.70
2022-12-31T21:56:11.115Z,3.05
2022-12-31T21:58:42.765Z,2.80
2022-12-31T22:01:37.466Z,3.13
2022-12-31T22:04:12.911Z,2.33
2022-12-31T22:06:49.021Z,2.28
2022-12-31T22:09:15.784Z,2.30
2022-12-31T22:11:42.555Z,2.42
2022-12-31T22:14:09.825Z,2.00
2022-12-31T22:16:37.089Z,2.10
2022-12-31T22:19:04.149Z,1.63
2022-12-31T22:21:30.870Z,2.28
2022-12-31T22:23:58.753Z,1.80
2022-12-31T22:26:28.954Z,1.65
2022-12-31T22:28:59.676Z,2.00
2022-12-31T22:31:30.145Z,1.80
2022-12-31T22:33:59.547Z,9.00
2022-12-31T22:36:26.480Z,1.50
2022-12-31T22:38:58.003Z,1.67
2022-12-31T22:41:26.425Z,1.13
2022-12-31T22:44:02.656Z,1.35
2022-12-31T22:46:31.107Z,1.52
2022-12-31T22:48:59.653Z,1.52
2022-12-31T22:51:56.452Z,1.45
2022-12-31T22:54:15.261Z,1.50
2022-12-31T22:56:42.050Z,1.45
2022-12-31T22:59:09.626Z,1.65
2022-12-31T23:01:37.038Z,1.60
2022-12-31T23:04:04.892Z,3.03
2022-12-31T23:06:32.405Z,12.95
2022-12-31T23:09:18.087Z,18.80
2022-12-31T23:11:44.926Z,16.45
2022-12-31T23:14:35.390Z,24.98
2022-12-31T23:17:31.265Z,33.40
2022-12-31T23:20:18.659Z,35.78
2022-12-31T23:23:05.276Z,64.97
2022-12-31T23:25:44.245Z,26.77
2022-12-31T23:28:14.757Z,27.48
2022-12-31T23:30:42.850Z,31.45
2022-12-31T23:33:14.445Z,7.80
2022-12-31T23:35:41.844Z,11.25
2022-12-31T23:38:11.803Z,20.77
2022-12-31T23:40:39.356Z,12.63
2022-12-31T23:43:07.719Z,6.05
2022-12-31T23:45:35.181Z,5.65
2022-12-31T23:48:02.203Z,6.20
2022-12-31T23:50:29.194Z,4.57
2022-12-31T23:52:55.960Z,4.53
2022-12-31T23:55:22.652Z,3.50
2022-12-31T23:57:49.333Z,3.42
